Fair Grove, Missouri
Current Conditions -  °F | °C
As of 11:52 AM on Friday 28 Nov 2014 (Local Time) from KSGF Reporting Station
Clear Clear  
Wind Chill: 56°   Ceiling: Unl
Heat Index: 56°   Visibility: 10mi
Dew Point: 32°   Wind: 18mph
Humidity: 40%   Direction: 190°S
Pressure: 30.01"   Gusts: NA
Location:  37.38°N, 93.15°W
Report Text: KSGF 281752Z 19016KT 10SM CLR 13/00 A3001 RMK AO2 PRESFR SLP166 T01330000 10133 20006 58028
Loading
Personal Weather Stations






























Interactive Weather Map New forecast layout! Learn more

10-Day Weather Forecast

Advertisements
Track Severe Weather on mobile